Etusivu
METAR-TAF:

METAR-TAF

Lentoasemat :

Raymond, Mississippi, Yhdysvallat

Leveyspiiri: 32-18-16N, Pituuspiiri: 090-24-38W, korkeus merenpinnasta: 75 m

Tämänhetkinen sää

Tämä raportti tehtiin 10 minuuttia sitten, kello 14.15 UTC
tyyntä
Lämpötila 14°C
Kosteus 94%
Ilmanpaine 1010 hPa
Näkyvyys: 16.1 km
Pilvistä 2600 ft:n korkeudessa

METAR: KJVW 191415Z AUTO 00000KT 10SM OVC026 14/13 A2983 RMK AO2

Aika: 09:25 (14:25 UTC)


TAF: puuttuu

Säähavainnot ja -ennusteet yli 4000 lentoasemalta (METAR- ja TAF-raportit).

Käytössä olevat sääasemat on merkitty karttaan keltaisilla ja punaisilla pisteillä.

Aseta hiiri pisteen päälle nähdäksesi sääaseman nimen.

Klikkaa sitten nähdäksesi säähavainnot ja -ennusteet.

Kartan vaihtaminen: klikkaa mustalla rastilla varustettuja vihreitä pisteitä, niin voit zoomata sisään; viivalla varustettua vihreää pistettä, niin voit zoomata ulos tai vihreitä nuolia, niin pääset viereisille kartoille.


METAR-TAF: